Time;durP1;ratioP1;P1;durP2;ratioP2;P2;SDS_P1;SDS_P2;PMS_P1;PMS_P2;Temp;Humidity;BMP_temperature;BMP_pressure;BME280_temperature;BME280_humidity;BME280_pressure;Samples;Min_cycle;Max_cycle;Signal;HPM_P1;HPM_P2
2022/01/29 00:01:13;;;;;;;11.20;5.03;;;4.20;99.90;;;;;;4988342;28;20188;-76
2022/01/29 00:03:38;;;;;;;12.47;5.00;;;4.20;99.90;;;;;;4988468;28;20697;-76
2022/01/29 00:06:04;;;;;;;11.37;5.37;;;4.20;99.90;;;;;;4987608;28;20208;-76
2022/01/29 00:08:30;;;;;;;12.43;5.47;;;4.20;99.90;;;;;;4970700;28;20196;-75
2022/01/29 00:11:02;;;;;;;8.70;4.60;;;4.20;99.90;;;;;;4988189;28;20179;-75
2022/01/29 00:13:28;;;;;;;9.13;5.20;;;4.30;99.90;;;;;;4988546;28;20188;-77
2022/01/29 00:15:53;;;;;;;9.07;4.23;;;4.30;99.90;;;;;;4988223;28;20204;-76
2022/01/29 00:18:19;;;;;;;13.00;5.40;;;4.30;99.90;;;;;;4988167;28;20187;-76
2022/01/29 00:20:45;;;;;;;10.07;4.73;;;4.30;99.90;;;;;;4988042;28;20180;-76
2022/01/29 00:23:10;;;;;;;11.43;4.63;;;4.30;99.90;;;;;;4987884;28;20251;-76
2022/01/29 00:25:36;;;;;;;7.27;4.60;;;4.40;99.90;;;;;;4987828;28;20184;-78
2022/01/29 00:28:01;;;;;;;11.80;5.57;;;4.30;99.90;;;;;;4992916;28;20184;-78
2022/01/29 00:30:36;;;;;;;11.80;5.53;;;4.30;99.90;;;;;;4995794;28;20700;-77
2022/01/29 00:33:01;;;;;;;9.03;4.73;;;4.40;99.90;;;;;;4990824;28;20487;-78
2022/01/29 00:35:27;;;;;;;10.53;5.37;;;4.30;99.90;;;;;;4994237;28;20211;-78
2022/01/29 00:37:53;;;;;;;7.67;5.00;;;4.30;99.90;;;;;;4990505;28;20266;-76
2022/01/29 00:40:18;;;;;;;7.10;5.03;;;4.30;99.90;;;;;;4969654;28;20188;-76
2022/01/29 00:42:44;;;;;;;7.63;4.27;;;4.30;99.90;;;;;;4970330;28;20669;-75
2022/01/29 00:45:09;;;;;;;12.27;5.37;;;4.40;99.90;;;;;;4987627;28;20199;-77
2022/01/29 00:47:35;;;;;;;11.13;5.13;;;4.30;99.90;;;;;;4954165;28;20259;-76
2022/01/29 00:50:01;;;;;;;11.33;4.97;;;4.30;99.90;;;;;;4987546;28;20280;-77
2022/01/29 00:52:26;;;;;;;7.40;4.40;;;4.30;99.90;;;;;;4970079;28;20188;-77
2022/01/29 00:54:52;;;;;;;11.23;5.27;;;4.30;99.90;;;;;;4986552;28;20185;-76
2022/01/29 00:57:17;;;;;;;10.27;5.47;;;4.30;99.90;;;;;;4970061;28;20210;-77
2022/01/29 00:59:43;;;;;;;7.90;5.27;;;4.30;99.90;;;;;;4987214;28;20184;-76
2022/01/29 01:02:09;;;;;;;10.30;5.50;;;4.40;99.90;;;;;;4969227;28;20231;-75
2022/01/29 01:04:38;;;;;;;10.03;5.80;;;4.40;99.90;;;;;;4969730;28;20685;-76
2022/01/29 01:07:08;;;;;;;12.23;5.50;;;4.30;99.90;;;;;;4987049;28;20243;-76
2022/01/29 01:09:34;;;;;;;12.57;5.83;;;4.30;99.90;;;;;;4986953;28;20209;-77
2022/01/29 01:12:00;;;;;;;12.83;5.70;;;4.30;99.90;;;;;;4987024;28;20184;-77
2022/01/29 01:14:25;;;;;;;11.20;5.40;;;4.30;99.90;;;;;;4986529;28;20184;-76
2022/01/29 01:16:51;;;;;;;10.40;6.07;;;4.30;99.90;;;;;;4986843;28;20223;-77
2022/01/29 01:19:16;;;;;;;9.30;5.87;;;4.40;99.90;;;;;;4986351;28;20215;-76
2022/01/29 01:21:42;;;;;;;12.80;5.63;;;4.40;99.90;;;;;;4986842;28;20185;-75
2022/01/29 01:24:08;;;;;;;13.03;5.73;;;4.30;99.90;;;;;;4986473;28;20550;-76
2022/01/29 01:26:33;;;;;;;13.40;6.03;;;4.30;99.90;;;;;;4986882;28;20642;-76
2022/01/29 01:28:59;;;;;;;11.67;5.93;;;4.30;99.90;;;;;;4986637;28;20215;-76
2022/01/29 01:31:24;;;;;;;11.80;5.70;;;4.30;99.90;;;;;;4986991;28;20188;-77
2022/01/29 01:33:51;;;;;;;13.00;6.00;;;4.30;99.90;;;;;;4989651;28;20654;-77
2022/01/29 01:36:20;;;;;;;10.47;5.70;;;4.30;99.90;;;;;;4988911;28;20212;-76
2022/01/29 01:38:51;;;;;;;12.50;5.80;;;4.30;99.90;;;;;;4989891;28;20271;-77
2022/01/29 01:41:22;;;;;;;9.90;5.90;;;4.30;99.90;;;;;;4972049;28;20191;-76
2022/01/29 01:43:48;;;;;;;12.00;5.87;;;4.30;99.90;;;;;;4991539;28;20188;-77
2022/01/29 01:46:14;;;;;;;10.80;5.40;;;4.30;99.90;;;;;;4989148;28;20227;-78
2022/01/29 01:48:39;;;;;;;7.97;5.90;;;4.30;99.90;;;;;;4989616;28;20666;-77
2022/01/29 01:51:06;;;;;;;14.67;6.50;;;4.30;99.90;;;;;;4989065;28;20260;-78
2022/01/29 01:53:32;;;;;;;14.50;6.40;;;4.30;99.90;;;;;;4989071;28;20183;-77
2022/01/29 01:55:57;;;;;;;9.30;5.87;;;4.40;99.90;;;;;;4988394;28;20200;-76
2022/01/29 01:58:23;;;;;;;12.13;5.97;;;4.30;99.90;;;;;;4989283;28;20721;-78
2022/01/29 02:00:49;;;;;;;12.33;7.13;;;4.30;99.90;;;;;;4972500;28;20188;-75
2022/01/29 02:03:15;;;;;;;11.47;6.93;;;4.30;99.90;;;;;;4992965;28;20262;-78
2022/01/29 02:05:40;;;;;;;16.07;7.20;;;4.30;99.90;;;;;;4992138;28;20181;-75
2022/01/29 02:08:07;;;;;;;8.93;6.47;;;4.40;99.90;;;;;;4974924;28;20195;-78
2022/01/29 02:10:33;;;;;;;15.27;7.40;;;4.40;99.90;;;;;;4992665;28;20207;-76
2022/01/29 02:13:03;;;;;;;11.57;6.97;;;4.40;99.90;;;;;;4975199;28;20183;-74
2022/01/29 02:15:29;;;;;;;10.50;6.50;;;4.40;99.90;;;;;;4974764;28;20204;-76
2022/01/29 02:17:55;;;;;;;13.10;6.90;;;4.40;99.90;;;;;;4974430;28;20180;-78
2022/01/29 02:20:23;;;;;;;13.77;7.20;;;4.40;99.90;;;;;;4992220;28;20255;-78
2022/01/29 02:22:49;;;;;;;11.50;6.90;;;4.40;99.90;;;;;;4974629;28;20188;-76
2022/01/29 02:25:38;;;;;;;14.90;7.93;;;4.50;99.90;;;;;;4992231;28;20667;-78
2022/01/29 02:28:12;;;;;;;13.63;6.70;;;4.50;99.90;;;;;;4991737;28;20192;-75
2022/01/29 02:30:40;;;;;;;10.20;6.53;;;4.50;99.90;;;;;;4974730;28;20187;-78
2022/01/29 02:33:10;;;;;;;14.83;8.03;;;4.50;99.90;;;;;;4992002;28;20199;-77
2022/01/29 02:35:41;;;;;;;13.20;7.50;;;4.50;99.90;;;;;;4975430;28;20251;-78
2022/01/29 02:38:08;;;;;;;11.27;6.70;;;4.50;99.90;;;;;;4991993;28;20729;-77
2022/01/29 02:40:38;;;;;;;14.47;6.83;;;4.50;99.90;;;;;;4991544;28;20255;-79
2022/01/29 02:43:19;;;;;;;10.83;6.83;;;4.60;99.90;;;;;;4992915;28;20184;-77
2022/01/29 02:45:46;;;;;;;12.40;6.60;;;4.60;99.90;;;;;;4974576;28;20200;-79
2022/01/29 02:48:13;;;;;;;13.90;7.83;;;4.60;99.90;;;;;;4991269;28;20220;-75
2022/01/29 02:50:39;;;;;;;14.03;7.50;;;4.60;99.90;;;;;;4991662;28;20269;-74
2022/01/29 02:53:05;;;;;;;11.40;6.83;;;4.60;99.90;;;;;;4992550;28;20643;-77
2022/01/29 02:55:31;;;;;;;13.80;6.43;;;4.60;99.90;;;;;;4990862;28;20195;-76
2022/01/29 02:57:57;;;;;;;10.50;6.47;;;4.60;99.90;;;;;;4974802;28;20187;-79
2022/01/29 03:00:23;;;;;;;12.37;6.77;;;4.60;99.90;;;;;;4991978;28;20933;-79
2022/01/29 03:02:49;;;;;;;12.77;6.93;;;4.60;99.90;;;;;;4991554;28;20212;-76
2022/01/29 03:05:14;;;;;;;10.70;6.50;;;4.60;99.90;;;;;;4990985;28;20269;-76
2022/01/29 03:07:40;;;;;;;10.77;6.50;;;4.60;99.90;;;;;;4992438;28;20204;-77
2022/01/29 03:10:07;;;;;;;10.03;6.57;;;4.70;99.90;;;;;;4973300;28;20215;-78
2022/01/29 03:12:33;;;;;;;12.20;6.33;;;4.60;99.90;;;;;;4974550;28;20203;-76
2022/01/29 03:14:59;;;;;;;12.33;6.93;;;4.60;99.90;;;;;;4990979;28;20185;-75
2022/01/29 03:17:24;;;;;;;13.03;6.83;;;4.70;99.90;;;;;;4973458;28;20211;-78
2022/01/29 03:19:52;;;;;;;12.30;7.20;;;4.70;99.90;;;;;;4991200;28;20184;-79
2022/01/29 03:22:18;;;;;;;9.60;6.73;;;4.70;99.90;;;;;;4991105;28;20279;-78
2022/01/29 03:24:44;;;;;;;8.60;6.37;;;4.70;99.90;;;;;;4973903;28;20223;-73
2022/01/29 03:27:10;;;;;;;10.90;6.60;;;4.60;99.90;;;;;;4974593;28;20560;-76
2022/01/29 03:29:36;;;;;;;12.37;7.30;;;4.70;99.90;;;;;;4991229;28;20342;-78
2022/01/29 03:32:02;;;;;;;11.17;6.50;;;4.70;99.90;;;;;;4990164;28;20199;-78
2022/01/29 03:34:27;;;;;;;14.30;7.40;;;4.70;99.90;;;;;;4990411;28;20659;-77
2022/01/29 03:36:55;;;;;;;12.67;6.87;;;4.70;99.90;;;;;;4990668;28;20215;-78
2022/01/29 03:39:23;;;;;;;14.47;6.87;;;4.70;99.90;;;;;;4991330;28;20584;-76
2022/01/29 03:41:49;;;;;;;12.63;7.13;;;4.70;99.90;;;;;;4991076;28;20192;-78
2022/01/29 03:44:14;;;;;;;11.33;6.43;;;4.70;99.90;;;;;;4990043;28;20192;-75
2022/01/29 03:46:40;;;;;;;11.40;6.37;;;4.70;99.90;;;;;;4973084;28;20320;-75
2022/01/29 03:49:05;;;;;;;10.73;6.17;;;4.70;99.90;;;;;;4973601;28;20271;-78
2022/01/29 03:51:31;;;;;;;11.53;7.07;;;4.70;99.90;;;;;;4992738;28;20184;-79
2022/01/29 03:53:57;;;;;;;11.73;6.93;;;4.70;99.90;;;;;;4991437;28;20188;-73
2022/01/29 03:56:22;;;;;;;11.30;7.20;;;4.70;99.90;;;;;;4993606;28;20286;-77
2022/01/29 03:58:48;;;;;;;11.83;6.53;;;4.70;99.90;;;;;;4979058;28;20192;-77
2022/01/29 04:01:14;;;;;;;11.80;6.80;;;4.70;99.90;;;;;;4979411;28;20278;-77
2022/01/29 04:03:39;;;;;;;10.87;7.00;;;4.70;99.90;;;;;;4996493;28;20216;-79
2022/01/29 04:06:05;;;;;;;12.43;7.23;;;4.70;99.90;;;;;;4995791;28;20220;-75
2022/01/29 04:08:33;;;;;;;12.73;7.50;;;4.70;99.90;;;;;;4994132;28;20192;-76
2022/01/29 04:10:59;;;;;;;11.87;7.60;;;4.60;99.90;;;;;;4993743;28;20194;-76
2022/01/29 04:13:26;;;;;;;9.63;7.37;;;4.60;99.90;;;;;;4993050;28;20309;-76
2022/01/29 04:15:52;;;;;;;11.30;6.93;;;4.70;99.90;;;;;;4991648;28;20757;-77
2022/01/29 04:18:21;;;;;;;9.33;7.20;;;4.60;99.90;;;;;;4990977;28;20297;-74
2022/01/29 04:20:46;;;;;;;12.33;7.07;;;4.60;99.90;;;;;;4989286;28;20240;-76
2022/01/29 04:23:12;;;;;;;11.40;6.80;;;4.60;99.90;;;;;;4986880;28;20267;-76
2022/01/29 04:25:37;;;;;;;12.93;7.43;;;4.60;99.90;;;;;;4967770;28;20210;-75
2022/01/29 04:28:04;;;;;;;13.50;7.63;;;4.50;99.90;;;;;;4984744;28;20242;-77
2022/01/29 04:30:32;;;;;;;11.90;7.20;;;4.50;99.90;;;;;;4969378;28;20327;-73
2022/01/29 04:33:14;;;;;;;16.10;7.73;;;4.50;99.90;;;;;;4987726;28;20203;-75
2022/01/29 04:35:40;;;;;;;15.43;7.03;;;4.50;99.90;;;;;;4990950;28;20191;-77
2022/01/29 04:38:06;;;;;;;13.10;7.67;;;4.50;99.90;;;;;;4993169;28;20196;-77
2022/01/29 04:40:33;;;;;;;12.10;7.07;;;4.50;99.90;;;;;;4993102;28;20246;-79
2022/01/29 04:42:59;;;;;;;11.90;6.97;;;4.50;99.90;;;;;;4975413;28;20324;-74
2022/01/29 04:45:25;;;;;;;11.37;7.20;;;4.50;99.90;;;;;;4974753;28;20252;-78
2022/01/29 04:47:50;;;;;;;14.07;6.90;;;4.40;99.90;;;;;;4992498;28;20312;-76
2022/01/29 04:50:16;;;;;;;12.43;7.60;;;4.40;99.90;;;;;;4992438;28;20216;-79
2022/01/29 04:52:42;;;;;;;10.03;7.83;;;4.30;99.90;;;;;;4993375;28;20192;-77
2022/01/29 04:55:08;;;;;;;10.60;7.37;;;4.40;99.90;;;;;;4992827;28;20713;-79
2022/01/29 04:57:36;;;;;;;13.93;7.57;;;4.40;99.90;;;;;;4992282;28;20203;-77
2022/01/29 05:00:07;;;;;;;13.43;7.70;;;4.50;99.90;;;;;;4992316;28;20215;-75
2022/01/29 05:02:33;;;;;;;13.87;7.50;;;4.50;99.90;;;;;;4987418;28;20188;-77
2022/01/29 05:04:59;;;;;;;14.27;8.07;;;4.50;99.90;;;;;;4986607;28;20189;-77
2022/01/29 05:07:24;;;;;;;12.10;7.07;;;4.50;99.90;;;;;;4987256;28;20218;-77
2022/01/29 05:09:50;;;;;;;17.00;8.53;;;4.50;99.90;;;;;;4986906;28;20247;-77
2022/01/29 05:12:21;;;;;;;12.03;7.83;;;4.50;99.90;;;;;;4986547;28;20184;-76
2022/01/29 05:15:08;;;;;;;12.40;8.27;;;4.50;99.90;;;;;;4969274;28;20651;-77
2022/01/29 05:28:30;;;;;;;11.50;7.93;;;4.60;99.90;;;;;;4987125;28;20199;-76
2022/01/29 05:30:55;;;;;;;13.00;7.97;;;4.60;99.90;;;;;;4986270;28;20570;-75
2022/01/29 05:33:21;;;;;;;14.03;8.07;;;4.60;99.90;;;;;;4987508;28;20266;-76
2022/01/29 05:35:47;;;;;;;12.60;7.97;;;4.50;99.90;;;;;;4987499;28;20185;-75
2022/01/29 05:38:12;;;;;;;11.53;7.83;;;4.60;99.90;;;;;;4987086;28;20276;-78
2022/01/29 05:40:38;;;;;;;11.67;7.43;;;4.60;99.90;;;;;;4987321;28;20755;-79
2022/01/29 05:43:03;;;;;;;12.43;7.77;;;4.60;99.90;;;;;;4987470;28;20188;-77
2022/01/29 05:45:29;;;;;;;9.90;7.50;;;4.60;99.90;;;;;;4987126;28;20192;-78
2022/01/29 05:47:55;;;;;;;16.27;8.40;;;4.70;99.90;;;;;;4987715;28;20181;-77
2022/01/29 05:50:21;;;;;;;10.47;7.37;;;4.70;99.90;;;;;;4987125;28;20200;-77
2022/01/29 05:52:46;;;;;;;11.67;8.10;;;4.70;99.90;;;;;;4987554;28;20185;-76
2022/01/29 05:55:12;;;;;;;10.83;7.53;;;4.70;99.90;;;;;;4987191;28;20188;-77
2022/01/29 05:57:38;;;;;;;12.60;8.13;;;4.70;99.90;;;;;;4987003;28;20228;-77
2022/01/29 06:00:05;;;;;;;13.33;8.47;;;4.70;99.90;;;;;;4986916;28;20202;-76
2022/01/29 06:02:30;;;;;;;10.20;7.10;;;4.70;99.90;;;;;;4987050;28;20184;-79
2022/01/29 06:04:56;;;;;;;14.50;8.07;;;4.70;99.90;;;;;;4987676;28;20194;-78
2022/01/29 06:07:22;;;;;;;12.93;8.40;;;4.70;99.90;;;;;;4986328;28;20742;-76
2022/01/29 06:09:48;;;;;;;11.70;7.70;;;4.70;99.90;;;;;;4986552;28;20254;-77
2022/01/29 06:12:13;;;;;;;15.07;8.13;;;4.70;99.90;;;;;;4985331;28;20295;-76
2022/01/29 06:14:40;;;;;;;13.63;8.30;;;4.70;99.90;;;;;;4986275;28;20287;-76
2022/01/29 06:17:06;;;;;;;11.20;7.90;;;4.80;99.90;;;;;;4985225;28;20271;-76
2022/01/29 06:19:32;;;;;;;11.20;8.53;;;4.80;99.90;;;;;;4985946;28;20228;-77
2022/01/29 06:21:58;;;;;;;12.73;8.13;;;4.80;99.90;;;;;;4985717;28;20192;-76
2022/01/29 06:24:23;;;;;;;12.60;8.27;;;4.80;99.90;;;;;;4985817;28;20188;-76
2022/01/29 06:26:49;;;;;;;9.73;7.30;;;4.90;99.90;;;;;;4986227;28;20211;-76
2022/01/29 06:29:14;;;;;;;11.90;8.00;;;4.90;99.90;;;;;;4968233;28;20303;-76
2022/01/29 06:31:40;;;;;;;12.67;8.40;;;4.90;99.90;;;;;;4985718;28;20259;-76
2022/01/29 06:34:05;;;;;;;15.47;9.60;;;4.90;99.90;;;;;;4985219;28;20188;-77
2022/01/29 06:36:31;;;;;;;12.20;8.17;;;5.00;99.90;;;;;;4985610;28;20208;-77
2022/01/29 06:38:57;;;;;;;12.00;7.87;;;5.00;99.90;;;;;;4983399;28;20191;-76
2022/01/29 06:41:22;;;;;;;15.10;8.10;;;5.10;99.90;;;;;;4985237;28;20274;-76
2022/01/29 06:43:48;;;;;;;18.50;9.17;;;5.10;99.90;;;;;;4985264;28;20208;-76
2022/01/29 06:46:14;;;;;;;12.17;8.17;;;5.10;99.90;;;;;;4969132;28;20234;-76
2022/01/29 06:48:39;;;;;;;13.00;8.40;;;5.10;99.90;;;;;;4985485;28;20188;-76
2022/01/29 06:51:05;;;;;;;14.23;8.50;;;5.10;99.90;;;;;;4985102;28;20190;-76
2022/01/29 06:53:30;;;;;;;12.33;8.63;;;5.10;99.90;;;;;;4984950;28;20180;-77
2022/01/29 06:55:56;;;;;;;12.47;7.77;;;5.20;99.90;;;;;;4985222;28;20251;-76
2022/01/29 06:58:22;;;;;;;12.20;8.13;;;5.20;99.90;;;;;;4984533;28;20199;-76
2022/01/29 07:00:47;;;;;;;10.57;8.13;;;5.20;99.90;;;;;;4982924;28;20243;-76
2022/01/29 07:03:13;;;;;;;12.13;7.90;;;5.20;99.90;;;;;;4966290;28;20272;-74
2022/01/29 07:05:38;;;;;;;13.57;8.30;;;5.20;99.90;;;;;;4965243;28;20881;-76
2022/01/29 07:08:04;;;;;;;13.23;8.77;;;5.20;99.90;;;;;;4964368;28;20196;-77
2022/01/29 07:10:30;;;;;;;11.03;7.93;;;5.20;99.90;;;;;;4982528;28;20208;-77
2022/01/29 07:12:55;;;;;;;11.73;7.90;;;5.30;99.90;;;;;;4983358;28;20576;-78
2022/01/29 07:15:21;;;;;;;16.23;8.27;;;5.30;99.90;;;;;;4964644;28;20279;-78
2022/01/29 07:17:46;;;;;;;12.80;9.07;;;5.40;99.90;;;;;;4977172;28;20207;-75
2022/01/29 07:20:12;;;;;;;14.00;8.67;;;5.30;99.90;;;;;;4963093;28;20198;-78
2022/01/29 07:22:39;;;;;;;14.97;8.33;;;5.40;99.90;;;;;;4981646;28;20192;-75
2022/01/29 07:25:06;;;;;;;10.70;7.30;;;5.40;99.90;;;;;;4980823;28;20223;-77
2022/01/29 07:27:31;;;;;;;13.10;8.30;;;5.50;99.90;;;;;;4963716;28;20208;-77
2022/01/29 07:29:57;;;;;;;10.40;7.33;;;5.50;99.90;;;;;;4981166;28;20215;-77
2022/01/29 07:32:23;;;;;;;11.80;7.30;;;5.50;99.90;;;;;;4982647;28;20195;-77
2022/01/29 07:34:49;;;;;;;11.23;7.63;;;5.50;99.90;;;;;;4996922;28;20192;-76
2022/01/29 07:37:14;;;;;;;11.23;7.60;;;5.50;99.90;;;;;;4992360;28;20227;-77
2022/01/29 07:39:40;;;;;;;10.27;7.80;;;5.50;99.90;;;;;;4983322;28;20198;-77
2022/01/29 07:42:06;;;;;;;10.20;7.17;;;5.60;99.90;;;;;;4982378;28;20495;-77
2022/01/29 07:44:32;;;;;;;14.23;7.67;;;5.50;99.90;;;;;;4963973;28;20196;-77
2022/01/29 07:46:58;;;;;;;9.53;7.43;;;5.60;99.90;;;;;;4980443;28;20262;-77
2022/01/29 07:49:24;;;;;;;10.23;6.77;;;5.60;99.90;;;;;;4981233;28;20208;-77
2022/01/29 07:51:49;;;;;;;9.90;7.33;;;5.60;99.90;;;;;;4982889;28;20669;-77
2022/01/29 07:54:15;;;;;;;8.73;6.63;;;5.60;99.90;;;;;;4983206;28;20192;-78
2022/01/29 07:56:41;;;;;;;9.50;6.13;;;5.70;99.90;;;;;;4984792;28;20208;-77
2022/01/29 07:59:06;;;;;;;10.03;6.33;;;5.60;99.90;;;;;;4985243;28;20705;-77
2022/01/29 08:01:32;;;;;;;9.70;6.77;;;5.70;99.90;;;;;;4985636;28;20188;-76
2022/01/29 08:03:58;;;;;;;8.57;6.07;;;5.60;99.90;;;;;;4969446;28;20196;-77
2022/01/29 08:06:24;;;;;;;10.23;6.93;;;5.70;99.90;;;;;;4988666;28;20238;-77
2022/01/29 08:08:50;;;;;;;10.57;6.93;;;5.70;99.90;;;;;;4988941;28;20288;-77
2022/01/29 08:11:16;;;;;;;8.63;5.80;;;5.70;99.90;;;;;;4988612;28;20188;-76
2022/01/29 08:13:43;;;;;;;9.47;6.77;;;5.70;99.90;;;;;;4988222;28;20184;-77
2022/01/29 08:16:09;;;;;;;8.50;5.80;;;5.80;99.90;;;;;;4988455;28;20212;-77
2022/01/29 08:18:35;;;;;;;7.60;5.60;;;5.70;99.90;;;;;;4969846;28;20674;-76
2022/01/29 08:21:01;;;;;;;8.40;5.37;;;5.70;99.90;;;;;;4988373;28;20193;-77
2022/01/29 08:23:26;;;;;;;7.43;4.90;;;5.80;99.90;;;;;;4988676;28;20184;-76
2022/01/29 08:25:53;;;;;;;7.77;5.83;;;5.80;99.90;;;;;;4987708;28;20222;-78
2022/01/29 08:28:19;;;;;;;6.60;5.27;;;5.90;99.90;;;;;;4988098;28;20291;-76
2022/01/29 08:30:44;;;;;;;7.37;5.53;;;5.90;99.90;;;;;;4988297;28;20418;-77
2022/01/29 08:33:16;;;;;;;7.10;5.30;;;6.00;99.90;;;;;;4987776;28;20192;-74
2022/01/29 08:35:42;;;;;;;6.27;4.97;;;6.00;99.90;;;;;;4988618;28;20176;-74
2022/01/29 08:38:08;;;;;;;6.43;4.50;;;6.00;99.90;;;;;;4988951;28;20642;-75
2022/01/29 08:40:33;;;;;;;8.00;4.50;;;6.00;99.90;;;;;;4986933;28;20195;-76
2022/01/29 08:42:59;;;;;;;6.63;4.60;;;6.10;99.90;;;;;;4988593;28;20200;-76
2022/01/29 08:45:24;;;;;;;5.57;4.43;;;6.10;99.90;;;;;;4986838;28;20199;-76
2022/01/29 08:47:50;;;;;;;5.30;4.33;;;6.20;99.90;;;;;;4986939;28;20339;-75
2022/01/29 08:50:15;;;;;;;4.67;4.10;;;6.20;99.90;;;;;;4987695;28;20891;-75
2022/01/29 08:52:41;;;;;;;3.97;3.00;;;6.30;99.90;;;;;;4987761;28;20187;-75
2022/01/29 08:55:09;;;;;;;3.70;3.30;;;6.30;99.90;;;;;;4987143;28;20184;-76
2022/01/29 08:57:35;;;;;;;4.33;2.90;;;6.40;99.90;;;;;;4987884;28;20226;-78
2022/01/29 09:00:01;;;;;;;4.37;3.33;;;6.40;99.90;;;;;;4970084;28;20192;-77
2022/01/29 09:02:26;;;;;;;5.10;3.63;;;6.40;99.90;;;;;;4986514;28;20195;-76
2022/01/29 09:04:55;;;;;;;3.50;2.87;;;6.50;99.90;;;;;;4987811;28;21003;-76
2022/01/29 09:07:20;;;;;;;3.73;3.00;;;6.60;99.90;;;;;;4987415;28;20208;-76
2022/01/29 09:09:46;;;;;;;3.10;2.70;;;6.60;99.90;;;;;;4987606;28;20226;-76
2022/01/29 09:12:13;;;;;;;3.60;2.83;;;6.70;99.90;;;;;;4988224;28;20207;-76
2022/01/29 09:14:40;;;;;;;3.37;2.97;;;6.70;99.90;;;;;;4986654;28;20196;-78
2022/01/29 09:17:06;;;;;;;4.37;3.30;;;6.80;99.90;;;;;;4987617;28;20709;-76
2022/01/29 09:19:32;;;;;;;3.53;2.97;;;6.80;99.90;;;;;;4985595;28;20192;-77
2022/01/29 09:21:58;;;;;;;4.03;3.27;;;6.80;99.90;;;;;;4969830;28;20928;-76
2022/01/29 09:24:23;;;;;;;4.47;3.70;;;6.80;99.90;;;;;;4987327;28;20184;-76
2022/01/29 09:26:49;;;;;;;4.23;3.83;;;6.90;99.90;;;;;;4987531;28;20291;-77
2022/01/29 09:29:14;;;;;;;4.27;3.60;;;6.90;99.90;;;;;;4986918;28;20215;-78
2022/01/29 09:31:40;;;;;;;4.17;3.13;;;6.90;99.90;;;;;;4987599;28;20185;-78
2022/01/29 09:34:06;;;;;;;5.30;3.93;;;6.90;99.90;;;;;;4986686;28;20192;-78
2022/01/29 09:36:31;;;;;;;5.07;3.83;;;7.00;99.90;;;;;;4970179;28;20614;-77
2022/01/29 09:38:57;;;;;;;5.30;4.40;;;7.00;99.90;;;;;;4969968;28;20188;-77
2022/01/29 09:41:25;;;;;;;6.20;4.87;;;7.10;99.90;;;;;;4986733;28;20180;-78
2022/01/29 09:43:56;;;;;;;6.53;4.70;;;7.10;99.90;;;;;;4986598;28;20184;-77
2022/01/29 09:46:26;;;;;;;7.57;5.00;;;7.10;99.90;;;;;;4986982;28;20271;-78
2022/01/29 09:48:53;;;;;;;6.60;5.20;;;7.20;99.90;;;;;;4986572;28;20212;-76
2022/01/29 09:51:19;;;;;;;8.00;5.90;;;7.20;99.90;;;;;;4986889;28;20188;-76
2022/01/29 09:53:45;;;;;;;9.20;6.20;;;7.20;99.90;;;;;;4986798;28;20180;-76
2022/01/29 09:56:12;;;;;;;9.33;6.63;;;7.30;99.90;;;;;;4986927;28;20265;-76
2022/01/29 09:58:39;;;;;;;11.53;6.87;;;7.30;99.90;;;;;;4986204;28;20184;-76
2022/01/29 10:01:05;;;;;;;8.60;6.67;;;7.40;99.90;;;;;;4985861;28;20184;-76
2022/01/29 10:03:30;;;;;;;9.53;6.53;;;7.40;99.90;;;;;;4986219;28;20211;-76
2022/01/29 10:06:00;;;;;;;11.63;6.60;;;7.30;99.90;;;;;;4986455;28;20683;-76
2022/01/29 10:08:27;;;;;;;10.27;6.43;;;7.40;99.90;;;;;;4986882;28;20181;-76
2022/01/29 10:10:57;;;;;;;8.27;5.90;;;7.40;99.90;;;;;;4986403;28;20208;-76
2022/01/29 10:13:36;;;;;;;9.83;6.77;;;7.40;99.90;;;;;;4986313;28;20254;-76
2022/01/29 10:16:21;;;;;;;8.53;5.93;;;7.50;99.90;;;;;;4986330;28;20254;-76
2022/01/29 10:19:08;;;;;;;8.70;5.97;;;7.60;99.90;;;;;;4984894;28;20268;-75
2022/01/29 10:21:47;;;;;;;8.43;5.53;;;7.50;99.90;;;;;;4985061;28;20275;-76
2022/01/29 10:24:15;;;;;;;10.33;6.13;;;7.60;99.90;;;;;;4968592;28;20195;-76
2022/01/29 10:26:46;;;;;;;7.70;5.27;;;7.60;99.90;;;;;;4985041;28;20210;-76
2022/01/29 10:29:19;;;;;;;7.47;5.73;;;7.60;99.90;;;;;;4986106;28;20211;-76
2022/01/29 10:32:00;;;;;;;7.83;5.27;;;7.50;99.90;;;;;;4986152;28;20195;-75
2022/01/29 10:34:34;;;;;;;7.97;5.63;;;7.60;99.90;;;;;;4968799;28;20184;-75
2022/01/29 10:37:17;;;;;;;8.13;5.93;;;7.60;99.90;;;;;;4985690;28;20218;-76
2022/01/29 10:40:16;;;;;;;7.87;5.60;;;7.60;99.90;;;;;;4967582;28;20211;-76
2022/01/29 10:42:42;;;;;;;7.73;5.33;;;7.50;99.90;;;;;;4985484;28;20181;-77
2022/01/29 10:45:09;;;;;;;8.27;5.30;;;7.70;99.90;;;;;;4985415;28;20554;-77
2022/01/29 10:47:54;;;;;;;6.57;4.93;;;7.70;99.90;;;;;;4985690;28;20290;-76
2022/01/29 10:50:19;;;;;;;6.70;4.70;;;7.70;99.90;;;;;;4985065;28;20219;-76
2022/01/29 10:52:45;;;;;;;6.77;4.97;;;7.80;99.90;;;;;;4984941;28;20184;-76
2022/01/29 10:55:10;;;;;;;6.47;4.67;;;7.80;99.90;;;;;;4982857;28;20218;-77
2022/01/29 10:57:38;;;;;;;6.10;4.40;;;7.80;99.90;;;;;;4986052;28;20275;-77
2022/01/29 11:00:15;;;;;;;7.60;4.70;;;7.80;99.90;;;;;;4968760;28;20188;-77
2022/01/29 11:02:41;;;;;;;8.83;5.30;;;7.90;99.90;;;;;;4985358;28;20188;-77
2022/01/29 11:05:07;;;;;;;7.67;5.17;;;7.90;99.90;;;;;;4985097;28;20268;-76
2022/01/29 11:07:34;;;;;;;6.67;4.77;;;7.90;99.90;;;;;;4984988;28;20206;-77
2022/01/29 11:10:03;;;;;;;5.67;3.73;;;8.00;99.90;;;;;;4985162;28;20239;-78
2022/01/29 11:12:30;;;;;;;5.43;3.70;;;8.10;99.90;;;;;;4984640;28;20203;-77
2022/01/29 11:14:59;;;;;;;6.87;4.40;;;8.00;99.90;;;;;;4985433;28;20203;-77
2022/01/29 11:17:26;;;;;;;6.10;3.83;;;8.10;99.90;;;;;;4983365;28;20196;-77
2022/01/29 11:19:52;;;;;;;5.10;3.47;;;8.00;99.90;;;;;;4985111;28;20931;-76
2022/01/29 11:22:23;;;;;;;4.90;3.27;;;8.10;99.90;;;;;;4984844;28;20193;-77
2022/01/29 11:24:58;;;;;;;5.17;3.90;;;8.10;99.90;;;;;;4985479;28;20251;-77
2022/01/29 11:27:27;;;;;;;5.37;3.83;;;8.10;99.90;;;;;;4985337;28;20203;-76
2022/01/29 11:30:00;;;;;;;4.13;3.40;;;8.10;99.90;;;;;;4985142;28;20204;-78
2022/01/29 11:32:32;;;;;;;4.57;3.20;;;8.10;99.90;;;;;;4984797;28;20180;-77
2022/01/29 11:35:16;;;;;;;5.50;3.17;;;8.10;99.90;;;;;;4984329;28;20216;-77
2022/01/29 11:37:57;;;;;;;4.97;3.33;;;8.10;99.90;;;;;;4984558;28;20200;-77
2022/01/29 11:40:34;;;;;;;5.17;3.27;;;8.20;99.90;;;;;;4967825;28;20223;-77
2022/01/29 11:43:18;;;;;;;4.07;3.03;;;8.20;99.90;;;;;;4984789;28;20673;-77
2022/01/29 11:46:04;;;;;;;5.10;3.03;;;8.20;99.90;;;;;;4967685;28;20306;-79
2022/01/29 11:48:31;;;;;;;4.40;2.97;;;8.20;99.90;;;;;;4984688;28;20230;-78
2022/01/29 11:50:57;;;;;;;4.37;3.20;;;8.20;99.90;;;;;;4984862;28;20736;-76
2022/01/29 11:53:25;;;;;;;5.33;4.00;;;8.20;99.90;;;;;;4984325;28;20274;-77
2022/01/29 11:55:55;;;;;;;3.50;3.20;;;8.10;99.90;;;;;;4967635;28;20273;-77
2022/01/29 11:58:27;;;;;;;5.00;2.80;;;8.20;99.90;;;;;;4985034;28;20176;-77
2022/01/29 12:00:57;;;;;;;3.40;2.57;;;8.20;99.90;;;;;;4966123;28;20184;-77
2022/01/29 12:03:41;;;;;;;2.97;2.50;;;8.20;99.90;;;;;;4984791;28;20287;-77
2022/01/29 12:06:31;;;;;;;3.40;2.43;;;8.30;99.90;;;;;;4967338;28;20215;-78
2022/01/29 12:09:07;;;;;;;3.27;2.50;;;8.30;99.90;;;;;;4983526;28;20187;-76
2022/01/29 12:11:38;;;;;;;2.67;2.10;;;8.30;99.90;;;;;;4984487;28;20199;-75
2022/01/29 12:14:15;;;;;;;3.97;2.17;;;8.30;99.90;;;;;;4983821;28;20234;-76
2022/01/29 12:16:57;;;;;;;2.90;2.10;;;8.40;99.90;;;;;;4984219;28;20203;-75
2022/01/29 12:19:42;;;;;;;2.30;1.90;;;8.40;99.90;;;;;;4965329;28;20184;-75
2022/01/29 12:22:17;;;;;;;2.73;2.00;;;8.50;99.90;;;;;;4984306;28;20436;-75
2022/01/29 12:25:04;;;;;;;2.20;1.80;;;8.50;99.90;;;;;;4984846;28;20215;-77
2022/01/29 12:27:45;;;;;;;3.03;2.07;;;8.50;99.90;;;;;;4965974;28;20262;-78
2022/01/29 12:30:14;;;;;;;1.90;1.70;;;8.40;99.90;;;;;;4984670;28;20196;-78
2022/01/29 12:32:40;;;;;;;3.07;1.80;;;8.50;99.90;;;;;;4984452;28;20704;-76
2022/01/29 12:35:06;;;;;;;3.20;2.07;;;8.50;99.90;;;;;;4984550;28;20259;-76
2022/01/29 12:37:32;;;;;;;2.70;2.00;;;8.50;99.90;;;;;;4984726;28;20269;-76
2022/01/29 12:40:21;;;;;;;2.83;2.00;;;8.50;99.90;;;;;;4984548;28;20215;-75
2022/01/29 12:42:56;;;;;;;1.60;1.50;;;8.60;99.90;;;;;;4984482;28;20199;-76
2022/01/29 12:45:24;;;;;;;2.43;1.70;;;8.60;99.90;;;;;;4984136;28;20176;-76
2022/01/29 12:47:50;;;;;;;2.40;1.90;;;8.60;99.90;;;;;;4984095;28;20299;-76
2022/01/29 12:50:22;;;;;;;2.30;2.10;;;8.60;99.90;;;;;;4967393;28;20311;-76
2022/01/29 12:52:48;;;;;;;1.83;1.63;;;8.60;99.90;;;;;;4987320;28;20165;-76
2022/01/29 12:55:15;;;;;;;1.90;1.37;;;8.60;99.90;;;;;;4970344;28;20242;-76
2022/01/29 12:57:44;;;;;;;2.00;1.60;;;8.70;99.90;;;;;;4970802;28;20224;-77
2022/01/29 13:00:16;;;;;;;1.60;1.50;;;8.70;99.90;;;;;;4987745;28;20638;-78
2022/01/29 13:02:42;;;;;;;1.57;1.30;;;8.80;99.90;;;;;;4987864;28;20655;-77
2022/01/29 13:05:09;;;;;;;2.43;1.40;;;8.80;99.90;;;;;;4987190;28;20268;-77